Time;durP1;ratioP1;P1;durP2;ratioP2;P2;SDS_P1;SDS_P2;PMS_P1;PMS_P2;Temp;Humidity;BMP_temperature;BMP_pressure;BME280_temperature;BME280_humidity;BME280_pressure;Samples;Min_cycle;Max_cycle;Signal;HPM_P1;HPM_P2
2020/12/19 00:00:31;;;;;;;14.97;11.17;;;8.20;99.90;;;;;;5054205;28;20305;-82
2020/12/19 00:02:58;;;;;;;18.00;12.33;;;8.20;99.90;;;;;;5059399;28;20226;-82
2020/12/19 00:05:24;;;;;;;14.07;11.73;;;8.20;99.90;;;;;;5074182;28;20248;-83
2020/12/19 00:07:51;;;;;;;14.70;11.87;;;8.20;99.90;;;;;;5066175;28;20230;-83
2020/12/19 00:10:17;;;;;;;14.50;11.93;;;8.20;99.90;;;;;;5062154;28;20234;-82
2020/12/19 00:12:46;;;;;;;15.80;12.00;;;8.10;99.90;;;;;;5053632;28;20642;-83
2020/12/19 00:15:13;;;;;;;14.00;11.73;;;8.00;99.90;;;;;;5053303;28;20200;-83
2020/12/19 00:17:40;;;;;;;15.53;12.03;;;8.00;99.90;;;;;;5067995;28;20709;-83
2020/12/19 00:20:07;;;;;;;15.57;12.13;;;7.90;99.90;;;;;;5056390;28;20635;-82
2020/12/19 00:22:33;;;;;;;14.00;10.70;;;7.90;99.90;;;;;;5072928;28;20249;-83
2020/12/19 00:25:00;;;;;;;15.07;11.90;;;7.90;99.90;;;;;;5072432;28;20227;-83
2020/12/19 00:27:26;;;;;;;17.03;11.10;;;7.90;99.90;;;;;;5073220;28;20357;-82
2020/12/19 00:29:54;;;;;;;15.00;11.73;;;7.80;99.90;;;;;;5073516;28;20282;-82
2020/12/19 00:32:20;;;;;;;15.13;11.57;;;7.80;99.90;;;;;;5064437;28;20258;-83
2020/12/19 00:34:47;;;;;;;13.80;11.70;;;7.80;99.90;;;;;;5057943;28;20254;-83
2020/12/19 00:37:14;;;;;;;16.27;12.47;;;7.80;99.90;;;;;;5053126;28;20239;-82
2020/12/19 00:39:41;;;;;;;15.57;11.47;;;7.80;99.90;;;;;;5072719;28;20239;-82
2020/12/19 00:42:10;;;;;;;14.33;11.87;;;7.80;99.90;;;;;;5068331;28;20238;-83
2020/12/19 00:44:36;;;;;;;15.07;11.90;;;7.80;99.90;;;;;;5054236;28;20199;-82
2020/12/19 00:47:04;;;;;;;16.07;12.87;;;7.80;99.90;;;;;;5069371;28;20674;-82
2020/12/19 00:49:30;;;;;;;14.87;11.67;;;7.80;99.90;;;;;;5070865;28;20657;-82
2020/12/19 00:51:56;;;;;;;15.83;11.80;;;7.90;99.90;;;;;;5062737;28;20727;-83
2020/12/19 00:54:23;;;;;;;15.60;12.00;;;7.90;99.90;;;;;;5058359;28;20208;-83
2020/12/19 00:56:52;;;;;;;13.87;11.47;;;7.90;99.90;;;;;;5061833;28;20223;-83
2020/12/19 00:59:19;;;;;;;14.47;11.23;;;7.90;99.90;;;;;;5071574;28;20241;-83
2020/12/19 01:01:45;;;;;;;13.23;11.63;;;8.00;99.90;;;;;;5063036;28;20226;-83
2020/12/19 01:04:13;;;;;;;14.80;11.60;;;8.10;99.90;;;;;;5070875;28;20710;-84
2020/12/19 01:06:41;;;;;;;14.93;10.77;;;8.10;99.90;;;;;;5071297;28;20290;-83
2020/12/19 01:09:08;;;;;;;15.03;11.23;;;8.20;99.90;;;;;;5067898;28;20210;-83
2020/12/19 01:11:37;;;;;;;13.70;10.37;;;8.20;99.90;;;;;;5072459;28;20195;-82
2020/12/19 01:14:04;;;;;;;15.10;10.50;;;8.30;99.90;;;;;;5072407;28;20210;-83
2020/12/19 01:16:31;;;;;;;13.00;10.50;;;8.30;99.90;;;;;;5060588;28;20718;-83
2020/12/19 01:18:58;;;;;;;13.33;10.10;;;8.30;99.90;;;;;;5072536;28;20230;-83
2020/12/19 01:21:27;;;;;;;12.60;10.20;;;8.30;99.90;;;;;;5054992;28;20235;-83
2020/12/19 01:23:54;;;;;;;13.80;10.80;;;8.40;99.90;;;;;;5055943;28;20254;-82
2020/12/19 01:26:21;;;;;;;13.03;10.60;;;8.40;99.90;;;;;;5063620;28;20302;-83
2020/12/19 01:28:48;;;;;;;12.70;9.47;;;8.40;99.90;;;;;;5055177;28;20254;-83
2020/12/19 01:31:16;;;;;;;13.10;9.33;;;8.40;99.90;;;;;;5072545;28;20233;-82
2020/12/19 01:33:44;;;;;;;13.80;10.10;;;8.40;99.90;;;;;;5071412;28;20669;-83
2020/12/19 01:36:11;;;;;;;12.50;10.23;;;8.40;99.90;;;;;;5072228;28;20375;-83
2020/12/19 01:38:39;;;;;;;13.57;10.53;;;8.30;99.90;;;;;;5060896;28;20242;-82
2020/12/19 01:41:06;;;;;;;12.80;10.27;;;8.30;99.90;;;;;;5052008;28;20247;-83
2020/12/19 01:43:44;;;;;;;15.67;10.43;;;8.30;99.90;;;;;;5052262;28;20250;-83
2020/12/19 01:46:10;;;;;;;13.77;9.77;;;8.40;99.90;;;;;;5052394;28;20218;-82
2020/12/19 01:48:38;;;;;;;14.87;10.50;;;8.40;99.90;;;;;;5060476;28;20291;-82
2020/12/19 01:51:04;;;;;;;13.70;10.30;;;8.40;99.90;;;;;;5072443;28;20644;-83
2020/12/19 01:53:31;;;;;;;12.47;9.80;;;8.40;99.90;;;;;;5055160;28;20251;-83
2020/12/19 01:55:59;;;;;;;14.57;10.27;;;8.50;99.90;;;;;;5052355;28;20261;-83
2020/12/19 01:58:27;;;;;;;13.30;9.23;;;8.50;99.90;;;;;;5060084;28;20242;-82
2020/12/19 02:00:54;;;;;;;13.63;9.20;;;8.60;99.90;;;;;;5064126;28;20235;-83
2020/12/19 02:03:21;;;;;;;15.17;9.33;;;8.60;99.90;;;;;;5066005;28;20607;-82
2020/12/19 02:05:52;;;;;;;13.37;9.43;;;8.60;99.90;;;;;;5072002;28;20660;-82
2020/12/19 02:08:19;;;;;;;13.13;9.23;;;8.70;99.90;;;;;;5069442;28;20292;-82
2020/12/19 02:10:45;;;;;;;13.33;10.20;;;8.70;99.90;;;;;;5051902;28;20204;-82
2020/12/19 02:13:13;;;;;;;12.20;9.20;;;8.70;99.90;;;;;;5051567;28;20713;-82
2020/12/19 02:15:40;;;;;;;14.13;9.23;;;8.70;99.90;;;;;;5051579;28;20243;-83
2020/12/19 02:18:07;;;;;;;11.50;8.87;;;8.70;99.90;;;;;;5071470;28;20203;-82
2020/12/19 02:20:33;;;;;;;13.83;9.73;;;8.70;99.90;;;;;;5057458;28;20230;-82
2020/12/19 02:23:02;;;;;;;13.80;9.93;;;8.70;99.90;;;;;;5057574;28;20627;-83
2020/12/19 02:25:33;;;;;;;13.43;9.47;;;8.70;99.90;;;;;;5066117;28;20543;-83
2020/12/19 02:28:02;;;;;;;12.47;9.07;;;8.70;99.90;;;;;;5051848;28;20239;-82
2020/12/19 02:30:29;;;;;;;15.10;9.27;;;8.70;99.90;;;;;;5053287;28;20273;-82
2020/12/19 02:32:56;;;;;;;13.23;8.77;;;8.70;99.90;;;;;;5051418;28;20235;-83
2020/12/19 02:35:22;;;;;;;12.40;8.83;;;8.70;99.90;;;;;;5051472;28;20627;-83
2020/12/19 02:37:49;;;;;;;15.43;9.40;;;8.70;99.90;;;;;;5051468;28;20235;-83
2020/12/19 02:40:16;;;;;;;17.63;10.33;;;8.70;99.90;;;;;;5057469;28;20235;-82
2020/12/19 02:42:43;;;;;;;14.30;9.97;;;8.70;99.90;;;;;;5075887;28;20300;-82
2020/12/19 02:45:10;;;;;;;13.80;9.93;;;8.70;99.90;;;;;;5075028;28;20215;-82
2020/12/19 02:47:38;;;;;;;14.50;9.77;;;8.70;99.90;;;;;;5075452;28;20239;-82
2020/12/19 02:50:06;;;;;;;17.00;10.37;;;8.70;99.90;;;;;;5075266;28;20242;-83
2020/12/19 02:52:33;;;;;;;14.93;10.10;;;8.70;99.90;;;;;;5068265;28;20266;-82
2020/12/19 02:55:00;;;;;;;12.73;9.50;;;8.70;99.90;;;;;;5074944;28;20241;-82
2020/12/19 02:57:26;;;;;;;13.27;9.30;;;8.70;99.90;;;;;;5074079;28;20238;-82
2020/12/19 02:59:54;;;;;;;14.40;10.40;;;8.60;99.90;;;;;;5069818;28;20234;-82
2020/12/19 03:02:21;;;;;;;18.10;10.17;;;8.70;99.90;;;;;;5055314;28;20227;-82
2020/12/19 03:04:47;;;;;;;17.20;10.10;;;8.70;99.90;;;;;;5055317;28;20766;-82
2020/12/19 03:07:14;;;;;;;12.53;9.70;;;8.70;99.90;;;;;;5037040;28;20631;-82
2020/12/19 03:09:40;;;;;;;16.60;10.23;;;8.90;99.90;;;;;;5055453;28;20235;-83
2020/12/19 03:12:07;;;;;;;13.07;9.57;;;8.90;99.90;;;;;;5068737;28;20270;-82
2020/12/19 03:14:34;;;;;;;18.27;9.23;;;9.00;99.90;;;;;;5074625;28;20235;-82
2020/12/19 03:17:01;;;;;;;13.83;9.47;;;9.10;99.90;;;;;;5074816;28;20235;-83
2020/12/19 03:19:28;;;;;;;13.33;9.10;;;9.10;99.90;;;;;;5075109;28;20240;-83
2020/12/19 03:21:54;;;;;;;14.17;9.47;;;9.10;99.90;;;;;;5075026;28;20827;-82
2020/12/19 03:24:21;;;;;;;12.33;8.93;;;9.10;99.90;;;;;;5074940;28;20238;-83
2020/12/19 03:26:47;;;;;;;18.13;9.73;;;9.10;99.90;;;;;;5074400;28;20738;-83
2020/12/19 03:29:14;;;;;;;15.00;9.43;;;9.10;99.90;;;;;;5074118;28;20376;-83
2020/12/19 03:31:41;;;;;;;14.77;9.40;;;9.20;99.90;;;;;;5074716;28;20203;-82
2020/12/19 03:34:08;;;;;;;16.67;9.10;;;9.30;99.90;;;;;;5074802;28;20258;-83
2020/12/19 03:36:35;;;;;;;15.10;9.07;;;9.30;99.90;;;;;;5074226;28;20634;-82
2020/12/19 03:39:02;;;;;;;13.97;8.63;;;9.50;99.90;;;;;;5074597;28;20729;-83
2020/12/19 03:41:28;;;;;;;12.73;7.33;;;9.70;99.90;;;;;;5074402;28;20236;-82
2020/12/19 03:43:55;;;;;;;15.13;9.13;;;9.80;99.90;;;;;;5074292;28;20237;-83
2020/12/19 03:46:21;;;;;;;15.77;8.37;;;9.90;99.90;;;;;;5074633;28;20238;-83
2020/12/19 03:48:48;;;;;;;14.60;8.50;;;9.90;99.90;;;;;;5073220;28;20717;-83
2020/12/19 03:51:15;;;;;;;14.37;8.40;;;10.00;99.90;;;;;;5054849;28;20235;-83
2020/12/19 03:53:42;;;;;;;16.63;8.87;;;10.00;99.90;;;;;;5080251;28;20669;-83
2020/12/19 03:56:09;;;;;;;16.97;8.17;;;10.00;99.90;;;;;;5064747;28;20256;-83
2020/12/19 03:58:35;;;;;;;13.03;8.10;;;10.10;99.90;;;;;;5065324;28;20257;-83
2020/12/19 04:01:02;;;;;;;17.43;8.13;;;10.20;99.90;;;;;;5070016;28;20237;-83
2020/12/19 04:03:28;;;;;;;13.43;7.47;;;10.30;99.90;;;;;;5053927;28;20239;-83
2020/12/19 04:05:55;;;;;;;15.27;7.53;;;10.30;99.90;;;;;;5054694;28;20254;-83
2020/12/19 04:08:22;;;;;;;13.33;7.90;;;10.30;99.90;;;;;;5054135;28;20258;-83
2020/12/19 04:10:48;;;;;;;13.67;8.23;;;10.30;99.90;;;;;;5070249;28;20626;-83
2020/12/19 04:13:15;;;;;;;18.20;7.73;;;10.30;99.90;;;;;;5073374;28;20254;-82
2020/12/19 04:15:41;;;;;;;19.30;8.27;;;10.40;99.90;;;;;;5073176;28;20234;-82
2020/12/19 04:18:10;;;;;;;12.53;7.93;;;10.30;99.90;;;;;;5073587;28;20641;-82
2020/12/19 04:20:36;;;;;;;16.03;8.07;;;10.30;99.90;;;;;;5073487;28;20588;-82
2020/12/19 04:23:03;;;;;;;18.30;8.17;;;10.30;99.90;;;;;;5073532;28;20690;-82
2020/12/19 04:25:30;;;;;;;19.17;8.97;;;10.30;99.90;;;;;;5073201;28;20226;-82
2020/12/19 04:27:57;;;;;;;13.33;6.13;;;10.30;99.90;;;;;;5062666;28;20279;-82
2020/12/19 04:30:24;;;;;;;14.17;8.53;;;10.30;99.90;;;;;;5072987;28;20298;-82
2020/12/19 04:32:50;;;;;;;16.27;8.23;;;10.30;99.90;;;;;;5069640;28;20251;-82
2020/12/19 04:35:17;;;;;;;15.47;8.33;;;10.30;99.90;;;;;;5053484;28;20317;-83
2020/12/19 04:37:43;;;;;;;17.20;8.33;;;10.30;99.90;;;;;;5052954;28;20294;-82
2020/12/19 04:40:10;;;;;;;14.23;7.80;;;10.30;99.90;;;;;;5064159;28;20292;-82
2020/12/19 04:42:38;;;;;;;14.70;8.00;;;10.40;99.90;;;;;;5055703;28;20198;-82
2020/12/19 04:45:05;;;;;;;12.73;7.60;;;10.40;99.90;;;;;;5054858;28;20294;-82
2020/12/19 04:47:32;;;;;;;17.60;7.93;;;10.50;99.90;;;;;;5062138;28;20245;-82
2020/12/19 04:49:59;;;;;;;12.87;7.33;;;10.50;99.90;;;;;;5073020;28;20680;-82
2020/12/19 04:52:27;;;;;;;13.53;6.97;;;10.50;99.90;;;;;;5072694;28;20227;-82
2020/12/19 04:54:55;;;;;;;13.97;7.33;;;10.50;99.90;;;;;;5070655;28;20238;-82
2020/12/19 04:57:21;;;;;;;14.07;6.97;;;10.50;99.90;;;;;;5053143;28;20239;-82
2020/12/19 04:59:49;;;;;;;13.73;7.07;;;10.60;99.90;;;;;;5068965;28;20230;-82
2020/12/19 05:02:16;;;;;;;14.80;7.23;;;10.60;99.90;;;;;;5071273;28;20238;-82
2020/12/19 05:04:43;;;;;;;13.53;7.03;;;10.60;99.90;;;;;;5072449;28;20906;-82
2020/12/19 05:07:11;;;;;;;9.33;5.97;;;10.60;99.90;;;;;;5057734;28;20292;-82
2020/12/19 05:09:39;;;;;;;12.33;6.27;;;10.70;99.90;;;;;;5072955;28;20198;-82
2020/12/19 05:12:06;;;;;;;10.40;6.33;;;10.70;99.90;;;;;;5072770;28;20207;-82
2020/12/19 05:14:33;;;;;;;11.27;5.83;;;10.80;99.90;;;;;;5054962;28;20541;-81
2020/12/19 05:17:01;;;;;;;11.10;6.33;;;10.80;99.90;;;;;;5072486;28;20478;-81
2020/12/19 05:19:28;;;;;;;9.53;5.67;;;10.90;99.90;;;;;;5072748;28;20230;-81
2020/12/19 05:21:55;;;;;;;8.53;5.60;;;10.90;99.90;;;;;;5061500;28;20286;-82
2020/12/19 05:24:28;;;;;;;11.73;5.40;;;10.90;99.90;;;;;;5070065;28;20230;-82
2020/12/19 05:26:55;;;;;;;11.40;5.30;;;10.90;99.90;;;;;;5071361;28;20298;-82
2020/12/19 05:29:21;;;;;;;10.50;5.23;;;11.00;99.90;;;;;;5072398;28;20280;-82
2020/12/19 05:31:55;;;;;;;8.30;4.57;;;11.00;99.90;;;;;;5072494;28;20234;-81
2020/12/19 05:34:23;;;;;;;8.30;5.00;;;11.10;99.90;;;;;;5072280;28;20191;-81
2020/12/19 05:36:50;;;;;;;8.77;4.77;;;11.10;99.90;;;;;;5072270;28;20234;-80
2020/12/19 05:39:17;;;;;;;12.33;4.83;;;11.00;99.90;;;;;;5072182;28;20644;-82
2020/12/19 05:41:44;;;;;;;7.20;4.10;;;11.00;99.90;;;;;;5072069;28;20696;-82
2020/12/19 05:44:12;;;;;;;7.67;3.70;;;11.10;99.90;;;;;;5072153;28;20687;-82
2020/12/19 05:46:40;;;;;;;8.50;3.87;;;11.10;99.90;;;;;;5071395;28;20722;-82
2020/12/19 05:49:08;;;;;;;6.23;3.70;;;11.10;99.90;;;;;;5071963;28;20234;-81
2020/12/19 05:51:38;;;;;;;8.47;3.73;;;11.10;99.90;;;;;;5072686;28;20686;-81
2020/12/19 05:54:06;;;;;;;6.57;4.27;;;11.10;99.90;;;;;;5073920;28;20302;-82
2020/12/19 05:56:35;;;;;;;6.37;3.60;;;11.20;99.90;;;;;;5067062;28;20235;-82
2020/12/19 05:59:03;;;;;;;10.37;4.03;;;11.20;99.90;;;;;;5051871;28;20242;-83
2020/12/19 06:01:30;;;;;;;7.43;3.83;;;11.20;99.90;;;;;;5051975;28;20199;-82
2020/12/19 06:04:03;;;;;;;5.80;3.47;;;11.30;99.90;;;;;;5052628;28;20227;-82
2020/12/19 06:06:32;;;;;;;8.63;3.40;;;11.30;99.90;;;;;;5072406;28;20195;-82
2020/12/19 06:09:01;;;;;;;5.13;3.20;;;11.30;99.90;;;;;;5070848;28;20273;-82
2020/12/19 06:11:32;;;;;;;7.97;3.40;;;11.30;99.90;;;;;;5071937;28;20236;-83
2020/12/19 06:14:04;;;;;;;8.10;3.07;;;11.30;99.90;;;;;;5076227;28;20705;-83
2020/12/19 06:16:32;;;;;;;3.93;2.90;;;11.30;99.90;;;;;;5078682;28;20238;-83
2020/12/19 06:19:11;;;;;;;9.77;3.00;;;11.40;99.90;;;;;;5059403;28;20210;-83
2020/12/19 06:21:39;;;;;;;8.43;3.33;;;11.40;99.90;;;;;;5066389;28;20580;-83
2020/12/19 06:24:08;;;;;;;11.70;3.43;;;11.40;99.90;;;;;;5077886;28;20226;-82
2020/12/19 06:26:37;;;;;;;10.83;2.90;;;11.40;99.90;;;;;;5078208;28;20253;-82
2020/12/19 06:29:05;;;;;;;12.33;3.07;;;11.40;99.90;;;;;;5061996;28;20239;-82
2020/12/19 06:31:31;;;;;;;13.63;3.63;;;11.40;99.90;;;;;;5058483;28;20273;-82
2020/12/19 06:34:04;;;;;;;10.00;2.93;;;11.40;99.90;;;;;;5060295;28;20262;-82
2020/12/19 06:36:32;;;;;;;12.10;3.33;;;11.40;99.90;;;;;;5078722;28;20562;-83
2020/12/19 06:39:07;;;;;;;14.90;3.40;;;11.40;99.90;;;;;;5077639;28;20230;-83
2020/12/19 06:41:55;;;;;;;14.03;2.70;;;11.40;99.90;;;;;;5074380;28;20248;-83
2020/12/19 06:44:26;;;;;;;10.03;2.63;;;11.50;99.90;;;;;;5078601;28;20202;-83
2020/12/19 06:46:53;;;;;;;12.37;2.83;;;11.50;99.90;;;;;;5078304;28;20233;-83
2020/12/19 06:49:40;;;;;;;17.53;3.20;;;11.50;99.90;;;;;;5078564;28;20290;-83
2020/12/19 06:52:11;;;;;;;8.87;2.40;;;11.60;99.90;;;;;;5069807;28;20289;-83
2020/12/19 06:54:40;;;;;;;15.40;2.67;;;11.60;99.90;;;;;;5078097;28;20294;-82
2020/12/19 06:57:22;;;;;;;12.43;2.80;;;11.60;99.90;;;;;;5078166;28;20234;-83
2020/12/19 06:59:49;;;;;;;12.37;3.00;;;11.60;99.90;;;;;;5078534;28;20238;-83
2020/12/19 07:02:17;;;;;;;15.93;2.47;;;11.60;99.90;;;;;;5075527;28;20238;-83
2020/12/19 07:04:44;;;;;;;17.50;2.87;;;11.60;99.90;;;;;;5076578;28;20226;-83
2020/12/19 07:07:12;;;;;;;13.30;2.40;;;11.60;99.90;;;;;;5072011;28;20235;-83
2020/12/19 07:09:39;;;;;;;12.53;2.67;;;11.60;99.90;;;;;;5076507;28;20284;-83
2020/12/19 07:12:27;;;;;;;20.27;2.93;;;11.60;99.90;;;;;;5077945;28;20241;-83
2020/12/19 07:14:53;;;;;;;12.77;3.03;;;11.60;99.90;;;;;;5061732;28;20234;-83
2020/12/19 07:17:20;;;;;;;21.80;5.53;;;11.60;99.90;;;;;;5077767;28;20252;-83
2020/12/19 07:19:56;;;;;;;17.47;5.17;;;11.60;99.90;;;;;;5078246;28;20235;-83
2020/12/19 07:22:23;;;;;;;17.23;3.07;;;11.60;99.90;;;;;;5058232;28;20286;-83
2020/12/19 07:24:50;;;;;;;20.47;5.07;;;11.60;99.90;;;;;;5062021;28;20201;-83
2020/12/19 07:27:17;;;;;;;18.57;4.23;;;11.60;99.90;;;;;;5074616;28;20786;-83
2020/12/19 07:29:44;;;;;;;16.13;4.40;;;11.60;99.90;;;;;;5074185;28;20318;-83
2020/12/19 07:32:11;;;;;;;20.83;4.30;;;11.50;99.90;;;;;;5074835;28;20291;-83
2020/12/19 07:34:37;;;;;;;17.33;3.73;;;11.50;99.90;;;;;;5074227;28;20231;-82
2020/12/19 07:37:04;;;;;;;15.57;3.23;;;11.60;99.90;;;;;;5074269;28;20702;-82
2020/12/19 07:39:31;;;;;;;19.33;3.17;;;11.50;99.90;;;;;;5068179;28;20235;-82
2020/12/19 07:42:03;;;;;;;15.17;3.53;;;11.60;99.90;;;;;;5058186;28;20227;-83
2020/12/19 07:44:31;;;;;;;17.80;3.20;;;11.50;99.90;;;;;;5074928;28;20639;-83
2020/12/19 07:47:00;;;;;;;15.20;3.50;;;11.50;99.90;;;;;;5069097;28;20226;-83
2020/12/19 07:49:34;;;;;;;17.57;3.93;;;11.50;99.90;;;;;;5063394;28;20239;-83
2020/12/19 07:52:10;;;;;;;15.83;2.90;;;11.50;99.90;;;;;;5061375;28;20245;-82
2020/12/19 07:54:37;;;;;;;18.33;3.07;;;11.50;99.90;;;;;;5077689;28;20230;-82
2020/12/19 07:57:04;;;;;;;16.60;3.37;;;11.50;99.90;;;;;;5073866;28;20250;-82
2020/12/19 07:59:32;;;;;;;20.17;4.20;;;11.40;99.90;;;;;;5074281;28;20242;-82
2020/12/19 08:02:03;;;;;;;12.17;3.17;;;11.30;99.90;;;;;;5069699;28;20238;-82
2020/12/19 08:04:30;;;;;;;18.87;3.37;;;11.20;99.90;;;;;;5061275;28;20207;-82
2020/12/19 08:06:58;;;;;;;16.67;3.43;;;11.20;99.90;;;;;;5071463;28;20286;-82
2020/12/19 08:09:25;;;;;;;16.00;2.97;;;11.20;99.90;;;;;;5072174;28;20268;-82
2020/12/19 08:11:52;;;;;;;19.73;3.30;;;11.20;99.90;;;;;;5071083;28;20198;-82
2020/12/19 08:14:20;;;;;;;19.43;3.37;;;11.20;99.90;;;;;;5054204;28;20285;-82
2020/12/19 08:16:48;;;;;;;16.80;2.93;;;11.20;99.90;;;;;;5063493;28;20284;-82
2020/12/19 08:19:22;;;;;;;17.87;3.20;;;11.20;99.90;;;;;;5072468;28;20278;-86
2020/12/19 08:21:58;;;;;;;20.73;3.13;;;11.20;99.90;;;;;;5073730;28;20791;-84
2020/12/19 08:24:25;;;;;;;16.20;3.37;;;11.20;99.90;;;;;;5073289;28;20209;-83
2020/12/19 08:27:11;;;;;;;16.67;3.07;;;11.10;99.90;;;;;;5073394;28;20246;-83
2020/12/19 08:29:38;;;;;;;18.40;3.40;;;11.10;99.90;;;;;;5073669;28;20277;-84
2020/12/19 08:32:05;;;;;;;19.80;2.80;;;11.00;99.90;;;;;;5072036;28;20234;-83
2020/12/19 08:34:32;;;;;;;20.00;3.20;;;11.00;99.90;;;;;;5061653;28;20258;-83
2020/12/19 08:36:59;;;;;;;18.43;2.53;;;11.00;99.90;;;;;;5073313;28;20231;-84
2020/12/19 08:39:25;;;;;;;19.47;2.87;;;11.00;99.90;;;;;;5073645;28;20248;-84
2020/12/19 08:41:52;;;;;;;16.13;3.07;;;11.00;99.90;;;;;;5057340;28;20307;-84
2020/12/19 08:44:26;;;;;;;20.53;2.87;;;11.10;99.90;;;;;;5059562;28;20634;-84
2020/12/19 08:47:03;;;;;;;13.37;2.77;;;11.10;99.90;;;;;;5073768;28;20268;-84
2020/12/19 08:49:31;;;;;;;16.93;3.00;;;11.10;99.90;;;;;;5072212;28;20202;-84
2020/12/19 08:51:57;;;;;;;14.53;2.80;;;11.10;99.90;;;;;;5072979;28;20233;-84
2020/12/19 08:54:24;;;;;;;19.47;2.87;;;11.20;99.90;;;;;;5056504;28;20314;-85
2020/12/19 08:56:51;;;;;;;17.37;2.47;;;11.20;99.90;;;;;;5071495;28;20241;-85
2020/12/19 08:59:27;;;;;;;21.33;3.00;;;11.20;99.90;;;;;;5073001;28;20203;-85
2020/12/19 09:01:55;;;;;;;15.77;3.07;;;11.20;99.90;;;;;;5069382;28;20331;-85
2020/12/19 09:04:22;;;;;;;17.80;3.70;;;11.20;99.90;;;;;;5072131;28;20265;-85
2020/12/19 09:06:51;;;;;;;17.37;3.53;;;11.20;99.90;;;;;;5072055;28;20720;-85
2020/12/19 09:09:19;;;;;;;20.17;2.90;;;11.10;99.90;;;;;;5072205;28;20663;-82
2020/12/19 09:11:45;;;;;;;14.77;2.53;;;11.10;99.90;;;;;;5067998;28;20280;-84
2020/12/19 09:14:13;;;;;;;24.07;3.00;;;11.10;99.90;;;;;;5072058;28;20302;-83
2020/12/19 09:16:49;;;;;;;17.10;2.93;;;11.20;99.90;;;;;;5072539;28;20735;-82
2020/12/19 09:19:17;;;;;;;25.60;3.33;;;11.20;99.90;;;;;;5071802;28;20558;-82
2020/12/19 09:21:54;;;;;;;17.73;2.97;;;11.20;99.90;;;;;;5056033;28;20226;-82
2020/12/19 09:24:22;;;;;;;16.00;3.27;;;11.10;99.90;;;;;;5071227;28;20246;-82
2020/12/19 09:26:48;;;;;;;19.43;3.17;;;11.00;99.90;;;;;;5070261;28;20299;-82
2020/12/19 09:29:15;;;;;;;15.67;3.33;;;11.00;99.90;;;;;;5069660;28;20322;-82
2020/12/19 09:31:42;;;;;;;12.93;3.43;;;11.20;99.90;;;;;;5071084;28;20230;-82
2020/12/19 09:34:08;;;;;;;15.80;3.30;;;11.60;99.90;;;;;;5072448;28;20258;-82
2020/12/19 09:36:36;;;;;;;16.93;3.60;;;12.20;99.90;;;;;;5071991;28;20211;-82
2020/12/19 09:39:04;;;;;;;15.90;3.33;;;12.60;99.90;;;;;;5063020;28;20199;-82
2020/12/19 09:41:30;;;;;;;14.83;2.97;;;12.50;99.90;;;;;;5052141;28;20246;-82
2020/12/19 09:43:56;;;;;;;16.50;3.73;;;12.50;99.90;;;;;;5052809;28;20257;-82
2020/12/19 09:46:23;;;;;;;16.77;3.83;;;12.50;99.90;;;;;;5062012;28;20640;-82
2020/12/19 09:48:51;;;;;;;13.10;3.10;;;12.40;99.90;;;;;;5071534;28;20234;-82
2020/12/19 09:51:17;;;;;;;12.67;2.83;;;12.10;99.90;;;;;;5072242;28;20666;-81
2020/12/19 09:53:44;;;;;;;15.60;2.83;;;12.00;99.90;;;;;;5071696;28;20714;-82
2020/12/19 09:56:11;;;;;;;19.47;3.27;;;11.80;99.90;;;;;;5059699;28;20230;-82
2020/12/19 09:58:37;;;;;;;12.10;2.90;;;11.70;99.90;;;;;;5072091;28;20256;-82
2020/12/19 10:01:04;;;;;;;20.53;3.50;;;11.70;99.90;;;;;;5068914;28;20218;-82
2020/12/19 10:03:30;;;;;;;19.37;3.70;;;11.70;99.90;;;;;;5057326;28;20191;-81
2020/12/19 10:05:57;;;;;;;17.40;2.90;;;11.80;99.90;;;;;;5056302;28;20222;-81
2020/12/19 10:08:24;;;;;;;21.90;3.50;;;12.00;99.90;;;;;;5070245;28;20237;-81
2020/12/19 10:10:50;;;;;;;18.63;3.57;;;12.60;99.90;;;;;;5070246;28;20207;-82
2020/12/19 10:13:19;;;;;;;20.07;3.93;;;12.80;99.90;;;;;;5069989;28;20268;-82
2020/12/19 10:15:46;;;;;;;19.67;3.40;;;13.30;99.90;;;;;;5064048;28;20239;-81
2020/12/19 10:18:12;;;;;;;16.40;3.87;;;13.90;99.90;;;;;;5068317;28;20235;-81
2020/12/19 10:20:39;;;;;;;23.80;3.77;;;14.20;99.90;;;;;;5067405;28;20228;-82
2020/12/19 10:23:05;;;;;;;14.30;3.00;;;14.60;99.90;;;;;;5070557;28;20234;-81
2020/12/19 10:25:32;;;;;;;21.07;4.13;;;14.50;99.90;;;;;;5071392;28;20277;-81
2020/12/19 10:27:58;;;;;;;23.03;5.30;;;14.40;99.90;;;;;;5070232;28;20289;-81
2020/12/19 10:30:25;;;;;;;17.57;4.10;;;14.50;99.90;;;;;;5070599;28;20341;-82
2020/12/19 10:32:52;;;;;;;14.43;3.77;;;14.40;99.90;;;;;;5066124;28;20297;-81
2020/12/19 10:35:18;;;;;;;18.63;3.90;;;14.50;99.90;;;;;;5069677;28;20278;-81
2020/12/19 10:37:45;;;;;;;15.67;3.60;;;14.50;99.90;;;;;;5062436;28;20290;-81
2020/12/19 10:40:11;;;;;;;19.13;3.97;;;14.50;99.90;;;;;;5069489;28;20612;-82
2020/12/19 10:42:38;;;;;;;18.20;3.63;;;14.80;99.90;;;;;;5060586;28;20636;-82
2020/12/19 10:45:04;;;;;;;21.03;4.20;;;14.80;99.90;;;;;;5063603;28;20284;-82
2020/12/19 10:47:32;;;;;;;16.77;3.30;;;15.20;99.90;;;;;;5069845;28;20211;-82
2020/12/19 10:49:58;;;;;;;22.03;3.77;;;14.70;99.90;;;;;;5070894;28;20231;-83
2020/12/19 10:52:25;;;;;;;12.30;2.50;;;14.60;99.90;;;;;;5070316;28;20234;-83
2020/12/19 10:55:00;;;;;;;15.33;3.67;;;14.40;99.90;;;;;;5070731;28;20195;-82
2020/12/19 10:57:27;;;;;;;16.93;3.10;;;14.00;99.90;;;;;;5058523;28;20227;-82
2020/12/19 10:59:53;;;;;;;16.50;3.30;;;13.60;99.90;;;;;;5071955;28;20227;-82
2020/12/19 11:02:19;;;;;;;15.30;3.70;;;13.50;99.90;;;;;;5074380;28;20303;-83
2020/12/19 11:04:46;;;;;;;20.33;3.80;;;13.80;99.90;;;;;;5072837;28;20195;-82
2020/12/19 11:07:13;;;;;;;15.07;3.57;;;14.20;99.90;;;;;;5070298;28;20613;-82
2020/12/19 11:09:39;;;;;;;15.80;2.90;;;14.20;99.90;;;;;;5074865;28;20238;-82
2020/12/19 11:12:06;;;;;;;17.83;3.37;;;14.60;99.90;;;;;;5072794;28;20237;-83
2020/12/19 11:14:32;;;;;;;23.07;3.73;;;15.30;99.90;;;;;;5071263;28;20302;-83
2020/12/19 11:16:59;;;;;;;16.67;3.67;;;15.50;99.90;;;;;;5067486;28;20203;-82
2020/12/19 11:19:25;;;;;;;14.20;3.13;;;15.90;99.90;;;;;;5074537;28;20226;-82
2020/12/19 11:21:53;;;;;;;18.47;3.23;;;15.90;99.90;;;;;;5073987;28;20234;-82
2020/12/19 11:24:19;;;;;;;18.08;3.38;;;16.50;99.90;;;;;;5074312;28;20249;-82
2020/12/19 11:26:48;;;;;;;12.00;2.75;;;16.50;99.90;;;;;;5067661;28;20302;-82
2020/12/19 11:29:15;;;;;;;18.10;3.03;;;16.40;99.90;;;;;;5063553;28;20277;-83
2020/12/19 11:31:42;;;;;;;15.07;3.08;;;16.10;99.90;;;;;;5072617;28;20286;-82
2020/12/19 11:34:09;;;;;;;13.68;2.70;;;15.90;99.90;;;;;;5070822;28;20247;-83
2020/12/19 11:36:39;;;;;;;17.65;3.70;;;16.00;99.90;;;;;;5068634;28;20254;-83
2020/12/19 11:39:08;;;;;;;19.35;4.15;;;16.10;99.90;;;;;;5071163;28;20207;-83
2020/12/19 11:41:34;;;;;;;13.88;3.00;;;15.70;99.90;;;;;;5074226;28;20195;-83
2020/12/19 11:44:01;;;;;;;15.70;3.13;;;15.80;99.90;;;;;;5074264;28;20231;-83
2020/12/19 11:46:27;;;;;;;19.80;3.83;;;15.20;99.90;;;;;;5074410;28;20651;-83
2020/12/19 11:48:54;;;;;;;16.50;3.80;;;14.60;99.90;;;;;;5065319;28;20228;-83
2020/12/19 11:51:26;;;;;;;21.00;4.13;;;14.50;99.90;;;;;;5073628;28;20308;-83
2020/12/19 11:53:54;;;;;;;15.43;3.33;;;14.90;99.90;;;;;;5073064;28;20306;-82
2020/12/19 11:56:21;;;;;;;16.60;2.43;;;15.20;99.90;;;;;;5073853;28;20207;-82
2020/12/19 11:58:48;;;;;;;17.07;3.60;;;14.60;99.90;;;;;;5072992;28;20608;-84
2020/12/19 12:01:14;;;;;;;15.17;3.30;;;15.20;99.90;;;;;;5074051;28;20326;-83
2020/12/19 12:03:41;;;;;;;16.47;3.27;;;15.40;99.90;;;;;;5073892;28;20726;-83
2020/12/19 12:06:07;;;;;;;21.40;3.07;;;15.00;99.90;;;;;;5073466;28;20227;-82
2020/12/19 12:08:34;;;;;;;17.87;3.17;;;15.00;99.90;;;;;;5063334;28;20231;-82
2020/12/19 12:11:01;;;;;;;18.00;3.47;;;15.10;99.90;;;;;;5065348;28;20278;-82
2020/12/19 12:13:28;;;;;;;12.00;2.87;;;15.00;99.90;;;;;;5071915;28;20215;-81
2020/12/19 12:15:55;;;;;;;14.23;2.90;;;15.20;99.90;;;;;;5068315;28;20195;-81
2020/12/19 12:18:22;;;;;;;16.67;3.43;;;15.30;99.90;;;;;;5057246;28;20239;-82
2020/12/19 12:20:48;;;;;;;19.03;3.60;;;15.50;99.90;;;;;;5069914;28;20231;-82
2020/12/19 12:23:15;;;;;;;16.53;3.30;;;15.10;99.90;;;;;;5066881;28;20235;-82
2020/12/19 12:25:41;;;;;;;16.27;3.27;;;15.10;99.90;;;;;;5070973;28;20726;-81
2020/12/19 12:28:07;;;;;;;14.87;3.10;;;15.50;99.90;;;;;;5060829;28;20270;-82
2020/12/19 12:30:35;;;;;;;13.57;3.47;;;16.00;99.90;;;;;;5072331;28;20665;-81
2020/12/19 12:33:01;;;;;;;12.93;2.50;;;15.80;99.90;;;;;;5072880;28;20255;-82
2020/12/19 12:35:28;;;;;;;14.80;3.17;;;15.60;99.90;;;;;;5057471;28;20238;-82
2020/12/19 12:37:54;;;;;;;13.83;2.80;;;15.80;99.90;;;;;;5069200;28;20522;-82
2020/12/19 12:40:20;;;;;;;13.53;2.97;;;15.60;99.90;;;;;;5071174;28;20207;-82